CST,Max TemperatureF,Mean TemperatureF,Min TemperatureF,Max Dew PointF,MeanDew PointF,Min DewpointF,Max Humidity, Mean Humidity, Min Humidity, Max Sea Level PressureIn, Mean Sea Level PressureIn, Min Sea Level PressureIn, Max VisibilityMiles, Mean VisibilityMiles, Min VisibilityMiles, Max Wind SpeedMPH, Mean Wind SpeedMPH, Max Gust SpeedMPH,PrecipitationIn, CloudCover, Events, WindDirDegrees
2012-11-1,48,40,33,34,27,13,89,60,25,29.87,29.83,29.80,10.0,9.7,5.0,16,8,29,0.00,5,,312
2012-11-2,45,40,36,37,33,28,95,76,55,30.14,30.02,29.87,10.0,9.8,7.0,16,9,22,0.00,7,Rain,358
2012-11-3,40,36,31,32,30,28,92,79,62,30.22,30.18,30.14,10.0,10.0,10.0,12,5,,0.00,5,,42
2012-11-4,43,37,32,32,30,27,95,79,62,30.22,30.19,30.17,10.0,10.0,10.0,10,1,,0.00,8,,20
2012-11-5,43,33,23,30,27,22,99,80,52,30.21,30.17,30.11,10.0,9.4,4.0,10,2,,0.00,3,,55
2012-11-6,43,32,21,37,29,20,98,82,55,30.13,30.00,29.91,10.0,6.5,1.8,8,2,,0.05,4,Rain,173
2012-11-7,48,38,27,37,33,27,99,84,55,30.16,30.05,29.91,10.0,6.2,1.5,9,5,,0.02,5,Rain,61
2012-11-8,43,34,25,40,32,26,100,89,67,30.22,30.17,30.13,10.0,4.6,0.2,10,2,,0.00,5,Fog,208
2012-11-9,56,42,27,43,37,27,100,76,54,30.15,30.07,30.01,10.0,7.0,0.2,12,3,17,0.00,5,Fog,158
2012-11-10,68,59,50,50,45,40,73,61,49,30.05,30.00,29.95,10.0,10.0,10.0,16,8,24,0.00,3,Rain-Thunderstorm,184
2012-11-11,67,58,50,53,47,43,98,64,48,30.03,29.94,29.85,10.0,9.4,3.0,25,15,40,0.00,4,Rain,195
2012-11-12,50,40,30,50,26,19,98,72,53,30.32,30.14,29.91,10.0,9.4,3.0,23,13,30,0.11,6,Rain-Snow,262
2012-11-13,38,30,23,23,19,16,84,65,44,30.51,30.45,30.32,10.0,10.0,7.0,15,6,21,0.00,3,Snow,267
2012-11-14,41,31,21,26,22,17,92,75,48,30.56,30.48,30.39,10.0,9.7,7.0,9,2,,0.00,2,,155
2012-11-15,44,32,20,30,25,19,96,81,48,30.41,30.37,30.33,10.0,6.9,2.0,6,1,,0.00,2,,213
2012-11-16,50,36,21,32,25,21,98,75,35,30.49,30.45,30.39,10.0,6.9,2.0,5,0,,0.00,2,,180
2012-11-17,52,38,23,33,28,21,96,74,42,30.57,30.51,30.48,10.0,7.5,4.0,8,2,,0.00,1,,132
2012-11-18,56,42,29,32,29,25,93,65,31,30.47,30.42,30.35,10.0,9.1,5.0,9,3,,0.00,0,,134
2012-11-19,57,44,32,36,33,28,90,65,39,30.35,30.25,30.14,10.0,10.0,10.0,9,3,,0.00,2,Rain,180
2012-11-20,52,42,32,45,40,33,100,83,65,30.18,30.12,30.08,10.0,5.4,0.2,8,3,,0.00,8,Fog-Rain,311
2012-11-21,53,42,32,50,39,32,100,95,73,30.26,30.20,30.14,5.0,2.1,0.2,9,2,,0.00,5,Fog-Snow,197
2012-11-22,58,48,39,47,42,39,100,78,52,30.14,29.98,29.82,10.0,6.6,1.2,20,9,31,0.01,3,Rain,201
2012-11-23,52,41,30,47,24,17,80,67,57,30.16,30.02,29.82,10.0,10.0,10.0,26,16,38,0.00,6,,287
2012-11-24,30,26,22,22,19,16,78,71,59,30.22,30.15,30.03,10.0,10.0,10.0,14,9,20,0.00,6,,258
2012-11-25,40,33,26,27,24,20,88,73,53,30.04,29.93,29.86,10.0,10.0,10.0,12,7,16,0.00,3,,249
2012-11-26,36,28,20,28,23,18,93,72,55,30.32,30.20,30.05,10.0,10.0,7.0,15,4,20,0.00,5,,328
2012-11-27,35,28,21,27,17,10,94,62,41,30.39,30.31,30.26,10.0,10.0,10.0,10,6,,0.00,4,,250
2012-11-28,41,32,24,24,18,14,74,61,36,30.36,30.31,30.26,10.0,10.0,10.0,12,6,17,0.00,3,,256
2012-11-29,48,37,26,31,27,21,83,66,46,30.31,30.21,30.13,10.0,9.7,7.0,15,6,21,0.00,3,,192
2012-11-30,50,40,31,34,31,27,87,69,49,30.16,30.11,30.07,10.0,10.0,10.0,9,4,,0.00,3,,159